createdAt,value
2022-11-07T00:01:19.527Z,9.90
2022-11-07T00:03:46.730Z,9.90
2022-11-07T00:06:13.532Z,9.90
2022-11-07T00:08:40.328Z,9.90
2022-11-07T00:11:07.635Z,9.90
2022-11-07T00:13:34.676Z,9.90
2022-11-07T00:16:03.389Z,9.90
2022-11-07T00:18:30.441Z,9.90
2022-11-07T00:21:04.656Z,9.80
2022-11-07T00:23:33.714Z,9.80
2022-11-07T00:26:04.540Z,9.80
2022-11-07T00:28:39.794Z,9.80
2022-11-07T00:31:07.910Z,9.80
2022-11-07T00:33:35.197Z,9.80
2022-11-07T00:36:02.490Z,9.80
2022-11-07T00:38:29.639Z,9.90
2022-11-07T00:41:04.895Z,9.90
2022-11-07T00:43:32.469Z,9.90
2022-11-07T00:46:01.802Z,9.90
2022-11-07T00:48:29.529Z,10.00
2022-11-07T00:50:56.325Z,10.00
2022-11-07T00:53:23.969Z,10.00
2022-11-07T00:55:50.747Z,10.00
2022-11-07T00:58:17.927Z,10.00
2022-11-07T01:00:45.287Z,10.00
2022-11-07T01:03:30.614Z,10.00
2022-11-07T01:06:03.011Z,10.00
2022-11-07T01:08:31.108Z,9.90
2022-11-07T01:10:59.257Z,9.90
2022-11-07T01:13:26.370Z,10.00
2022-11-07T01:15:53.621Z,10.00
2022-11-07T01:18:20.922Z,10.00
2022-11-07T01:20:49.527Z,10.00
2022-11-07T01:23:18.033Z,9.90
2022-11-07T01:25:45.052Z,10.00
2022-11-07T01:28:11.907Z,10.00
2022-11-07T01:30:43.579Z,10.00
2022-11-07T01:33:10.760Z,10.00
2022-11-07T01:35:37.823Z,10.00
2022-11-07T01:38:04.915Z,10.00
2022-11-07T01:40:33.821Z,10.10
2022-11-07T01:43:00.562Z,10.00
2022-11-07T01:45:30.919Z,10.00
2022-11-07T01:48:01.177Z,10.00
2022-11-07T01:50:28.413Z,10.00
2022-11-07T01:52:57.137Z,10.00
2022-11-07T01:55:29.702Z,10.00
2022-11-07T01:58:01.878Z,10.00
2022-11-07T02:00:30.997Z,10.10
2022-11-07T02:03:08.002Z,10.10
2022-11-07T02:05:38.824Z,10.10
2022-11-07T02:08:08.441Z,10.10
2022-11-07T02:10:36.741Z,10.10
2022-11-07T02:13:03.945Z,10.10
2022-11-07T02:15:32.472Z,10.10
2022-11-07T02:18:00.189Z,10.10
2022-11-07T02:20:27.342Z,10.20
2022-11-07T02:23:13.562Z,10.20
2022-11-07T02:25:40.868Z,10.20
2022-11-07T02:28:10.132Z,10.20
2022-11-07T02:30:38.836Z,10.20
2022-11-07T02:33:17.885Z,10.20
2022-11-07T02:35:47.216Z,10.20
2022-11-07T02:38:37.088Z,10.30
2022-11-07T02:41:14.392Z,10.20
2022-11-07T02:43:51.546Z,10.20
2022-11-07T02:46:18.663Z,10.20
2022-11-07T02:48:48.624Z,10.20
2022-11-07T02:51:15.574Z,10.20
2022-11-07T02:53:42.587Z,10.20
2022-11-07T02:56:10.047Z,10.20
2022-11-07T02:58:36.930Z,10.20
2022-11-07T03:01:12.246Z,10.20
2022-11-07T03:03:45.067Z,10.20
2022-11-07T03:06:15.518Z,10.20
2022-11-07T03:08:43.187Z,10.20
2022-11-07T03:11:11.745Z,10.10
2022-11-07T03:13:38.893Z,10.10
2022-11-07T03:16:10.387Z,10.10
2022-11-07T03:18:37.788Z,10.10
2022-11-07T03:21:05.619Z,10.10
2022-11-07T03:23:34.390Z,10.00
2022-11-07T03:26:01.122Z,10.00
2022-11-07T03:28:27.889Z,10.00
2022-11-07T03:30:54.677Z,10.00
2022-11-07T03:33:21.492Z,10.00
2022-11-07T03:35:48.609Z,9.90
2022-11-07T03:38:15.380Z,10.00
2022-11-07T03:40:42.116Z,9.90
2022-11-07T03:43:08.923Z,9.90
2022-11-07T03:45:35.716Z,9.90
2022-11-07T03:48:02.490Z,9.80
2022-11-07T03:50:29.517Z,9.80
2022-11-07T03:52:56.285Z,9.80
2022-11-07T03:55:23.040Z,9.80
2022-11-07T03:57:49.814Z,9.80
2022-11-07T04:00:17.639Z,9.80
2022-11-07T04:02:44.995Z,9.80
2022-11-07T04:05:12.392Z,9.80
2022-11-07T04:07:39.240Z,9.80
2022-11-07T04:10:06.413Z,9.80
2022-11-07T04:12:52.138Z,9.80
2022-11-07T04:15:37.530Z,9.70
2022-11-07T04:18:04.448Z,9.70
2022-11-07T04:20:31.185Z,9.60
2022-11-07T04:22:58.004Z,9.60
2022-11-07T04:25:44.972Z,9.50
2022-11-07T04:28:11.750Z,9.50
2022-11-07T04:30:38.513Z,9.40
2022-11-07T04:33:05.632Z,9.40
2022-11-07T04:35:33.800Z,9.40
2022-11-07T04:38:01.590Z,9.30
2022-11-07T04:40:29.659Z,9.30
2022-11-07T04:42:57.037Z,9.30
2022-11-07T04:45:23.863Z,9.30
2022-11-07T04:47:50.627Z,9.20
2022-11-07T04:50:19.046Z,9.20
2022-11-07T04:52:46.952Z,9.20
2022-11-07T04:55:20.786Z,9.20
2022-11-07T04:57:48.519Z,9.10
2022-11-07T05:00:16.602Z,9.10
2022-11-07T05:02:43.488Z,9.10
2022-11-07T05:05:10.846Z,9.10
2022-11-07T05:07:38.053Z,9.10
2022-11-07T05:10:10.916Z,9.10
2022-11-07T05:12:38.958Z,9.10
2022-11-07T05:15:06.325Z,9.10
2022-11-07T05:17:33.118Z,9.10
2022-11-07T05:19:59.840Z,9.10
2022-11-07T05:22:45.230Z,9.10
2022-11-07T05:25:11.974Z,9.10
2022-11-07T05:27:38.865Z,9.20
2022-11-07T05:30:06.697Z,9.20
2022-11-07T05:32:41.293Z,9.20
2022-11-07T05:35:08.404Z,9.20
2022-11-07T05:37:35.194Z,9.20
2022-11-07T05:40:01.903Z,9.20
2022-11-07T05:42:28.649Z,9.30
2022-11-07T05:44:55.570Z,9.20
2022-11-07T05:47:22.392Z,9.30
2022-11-07T05:49:49.124Z,9.30
2022-11-07T05:52:15.896Z,9.30
2022-11-07T05:54:42.650Z,9.30
2022-11-07T05:57:09.398Z,9.30
2022-11-07T05:59:36.188Z,9.30
2022-11-07T06:02:03.114Z,9.30
2022-11-07T06:04:29.969Z,9.30
2022-11-07T06:06:56.814Z,9.30
2022-11-07T06:09:23.585Z,9.40
2022-11-07T06:11:50.358Z,9.40
2022-11-07T06:14:17.157Z,9.40
2022-11-07T06:16:43.927Z,9.40
2022-11-07T06:19:10.705Z,9.50
2022-11-07T06:21:37.476Z,9.50
2022-11-07T06:24:04.511Z,9.60
2022-11-07T06:26:31.403Z,9.60
2022-11-07T06:28:58.304Z,9.70
2022-11-07T06:31:25.416Z,9.70
2022-11-07T06:33:52.374Z,9.80
2022-11-07T06:36:19.380Z,9.80
2022-11-07T06:38:46.506Z,9.80
2022-11-07T06:41:14.935Z,9.90
2022-11-07T06:43:42.287Z,9.90
2022-11-07T06:46:13.606Z,10.00
2022-11-07T06:48:40.838Z,10.00
2022-11-07T06:51:09.874Z,10.00
2022-11-07T06:53:37.286Z,10.10
2022-11-07T06:56:06.950Z,10.20
2022-11-07T06:58:56.953Z,10.20
2022-11-07T07:01:24.115Z,10.30
2022-11-07T07:03:51.144Z,10.30
2022-11-07T07:06:55.222Z,10.30
2022-11-07T07:09:33.892Z,10.40
2022-11-07T07:12:07.695Z,10.40
2022-11-07T07:14:37.586Z,10.40
2022-11-07T07:17:19.205Z,10.40
2022-11-07T07:19:48.702Z,10.40
2022-11-07T07:22:15.670Z,10.40
2022-11-07T07:24:46.155Z,10.40
2022-11-07T07:27:15.907Z,10.40
2022-11-07T07:29:43.268Z,10.40
2022-11-07T07:32:10.240Z,10.50
2022-11-07T07:34:37.697Z,10.40
2022-11-07T07:37:04.843Z,10.50
2022-11-07T07:39:31.930Z,10.50
2022-11-07T07:42:04.122Z,10.50
2022-11-07T07:44:36.095Z,10.50
2022-11-07T07:47:07.040Z,10.50
2022-11-07T07:49:39.961Z,10.50
2022-11-07T07:52:07.372Z,10.50
2022-11-07T07:54:37.772Z,10.50
2022-11-07T07:57:25.966Z,10.50
2022-11-07T08:00:13.086Z,10.50
2022-11-07T08:02:45.903Z,10.60
2022-11-07T08:05:27.085Z,10.60
2022-11-07T08:07:59.182Z,10.60
2022-11-07T08:10:42.393Z,10.70
2022-11-07T08:13:14.152Z,10.80
2022-11-07T08:15:48.580Z,10.80
2022-11-07T08:18:24.595Z,10.80
2022-11-07T08:21:11.783Z,10.90
2022-11-07T08:24:01.947Z,11.00
2022-11-07T08:26:31.747Z,11.00
2022-11-07T08:58:19.000Z,11.40
2022-11-07T09:01:19.219Z,11.40
2022-11-07T09:04:03.733Z,11.50
2022-11-07T09:06:32.843Z,11.50
2022-11-07T09:09:01.315Z,11.50
2022-11-07T09:11:28.531Z,11.50
2022-11-07T09:14:05.725Z,11.60
2022-11-07T09:16:44.366Z,11.60
2022-11-07T09:19:11.202Z,11.70
2022-11-07T09:24:33.644Z,11.70
2022-11-07T09:27:25.460Z,11.70
2022-11-07T09:29:52.531Z,11.70
2022-11-07T09:32:49.295Z,11.80
2022-11-07T09:35:16.476Z,11.80
2022-11-07T09:37:47.264Z,11.80
2022-11-07T09:40:30.982Z,11.90
2022-11-07T09:43:32.864Z,11.90
2022-11-07T09:46:22.159Z,11.90
2022-11-07T09:49:02.890Z,11.90
2022-11-07T09:51:43.651Z,11.90
2022-11-07T09:54:21.666Z,11.90
2022-11-07T09:56:48.486Z,12.00
2022-11-07T09:59:24.723Z,12.00
2022-11-07T10:01:51.613Z,12.00
2022-11-07T10:05:24.269Z,12.00
2022-11-07T10:08:17.130Z,12.00
2022-11-07T10:10:44.848Z,12.00
2022-11-07T10:14:00.143Z,12.10
2022-11-07T10:17:31.230Z,12.10
2022-11-07T10:20:39.300Z,12.10
2022-11-07T10:26:35.811Z,12.10
2022-11-07T10:29:51.053Z,12.20
2022-11-07T10:32:59.784Z,12.20
2022-11-07T10:36:56.141Z,12.30
2022-11-07T10:39:42.410Z,12.30
2022-11-07T10:42:26.267Z,12.40
2022-11-07T10:45:15.242Z,12.50
2022-11-07T10:48:02.209Z,12.50
2022-11-07T10:50:43.575Z,12.60
2022-11-07T10:53:48.430Z,12.60
2022-11-07T11:00:33.543Z,12.70
2022-11-07T11:09:36.640Z,12.80
2022-11-07T11:12:21.456Z,12.80
2022-11-07T11:16:16.152Z,12.80
2022-11-07T11:19:30.136Z,12.90
2022-11-07T11:26:14.478Z,12.90
2022-11-07T11:28:54.499Z,13.00
2022-11-07T11:31:41.381Z,13.00
2022-11-07T11:34:40.070Z,13.00
2022-11-07T11:37:34.654Z,13.10
2022-11-07T11:41:24.968Z,13.10
2022-11-07T11:47:34.282Z,13.20
2022-11-07T11:51:07.421Z,13.20
2022-11-07T11:53:48.543Z,13.30
2022-11-07T11:57:09.913Z,13.30
2022-11-07T12:00:23.832Z,13.40
2022-11-07T12:06:30.691Z,13.50
2022-11-07T12:09:05.559Z,13.50
2022-11-07T12:12:55.788Z,13.60
2022-11-07T12:16:15.740Z,13.60
2022-11-07T12:19:23.553Z,13.70
2022-11-07T12:22:32.159Z,13.80
2022-11-07T12:33:22.201Z,13.90
2022-11-07T12:46:56.982Z,14.20
2022-11-07T13:02:23.682Z,14.20
2022-11-07T13:12:17.505Z,14.10
2022-11-07T13:16:08.893Z,14.00
2022-11-07T13:18:54.016Z,14.00
2022-11-07T13:22:24.567Z,14.00
2022-11-07T13:48:42.346Z,14.20
2022-11-07T13:55:43.811Z,14.20
2022-11-07T13:59:14.273Z,14.10
2022-11-07T14:02:27.123Z,14.10
2022-11-07T14:05:32.691Z,14.20
2022-11-07T14:14:00.969Z,14.20
2022-11-07T14:16:40.811Z,14.20
2022-11-07T14:19:33.143Z,14.10
2022-11-07T14:28:20.693Z,14.10
2022-11-07T14:37:57.760Z,13.90
2022-11-07T14:40:44.586Z,13.90
2022-11-07T14:52:16.552Z,13.80
2022-11-07T14:59:01.580Z,13.80
2022-11-07T15:23:25.692Z,13.60
2022-11-07T15:30:46.413Z,13.50
2022-11-07T15:36:23.009Z,13.50
2022-11-07T15:40:33.640Z,13.40
2022-11-07T15:42:57.991Z,13.40
2022-11-07T15:46:40.570Z,13.40
2022-11-07T15:54:21.607Z,13.30
2022-11-07T16:00:19.914Z,13.20
2022-11-07T16:07:15.441Z,13.10
2022-11-07T16:24:06.898Z,12.80
2022-11-07T16:27:27.996Z,12.60
2022-11-07T16:37:25.181Z,12.40
2022-11-07T16:49:08.704Z,12.00
2022-11-07T17:00:24.257Z,11.80
2022-11-07T17:03:34.025Z,11.70
2022-11-07T17:13:37.612Z,11.60
2022-11-07T17:16:46.956Z,11.50
2022-11-07T17:19:47.038Z,11.50
2022-11-07T17:22:20.112Z,11.50
2022-11-07T17:24:58.711Z,11.40
2022-11-07T17:28:04.843Z,11.40
2022-11-07T17:31:30.144Z,11.40
2022-11-07T17:34:28.028Z,11.50
2022-11-07T17:44:33.123Z,11.60
2022-11-07T18:24:22.835Z,11.60
2022-11-07T18:27:26.150Z,11.60
2022-11-07T18:37:20.858Z,11.70
2022-11-07T18:47:18.870Z,11.40
2022-11-07T18:53:48.974Z,11.30
2022-11-07T19:00:52.751Z,11.10
2022-11-07T19:03:28.634Z,11.00
2022-11-07T19:07:39.804Z,11.00
2022-11-07T19:10:11.223Z,10.90
2022-11-07T19:17:58.375Z,10.80
2022-11-07T19:22:05.379Z,10.70
2022-11-07T19:28:00.516Z,10.50
2022-11-07T19:30:52.482Z,10.50
2022-11-07T19:37:20.624Z,10.30
2022-11-07T19:39:57.240Z,10.30
2022-11-07T19:42:58.082Z,10.20
2022-11-07T19:49:06.346Z,10.20
2022-11-07T19:52:11.685Z,10.10
2022-11-07T19:58:16.933Z,10.00
2022-11-07T20:01:39.538Z,10.00
2022-11-07T20:05:12.923Z,10.00
2022-11-07T20:22:26.912Z,9.90
2022-11-07T20:25:06.960Z,9.90
2022-11-07T20:32:52.879Z,9.90
2022-11-07T20:36:08.633Z,9.90
2022-11-07T20:39:06.327Z,9.90
2022-11-07T20:42:28.670Z,9.90
2022-11-07T20:48:50.401Z,9.90
2022-11-07T20:51:51.771Z,9.80
2022-11-07T20:57:35.500Z,9.70
2022-11-07T21:00:25.889Z,9.70
2022-11-07T21:07:34.325Z,9.70
2022-11-07T21:13:37.212Z,9.60
2022-11-07T21:16:23.220Z,9.50
2022-11-07T21:18:59.610Z,9.50
2022-11-07T21:21:53.433Z,9.50
2022-11-07T21:24:20.513Z,9.50
2022-11-07T21:26:51.122Z,9.40
2022-11-07T21:33:34.687Z,9.40
2022-11-07T21:36:12.069Z,9.30
2022-11-07T21:38:46.720Z,9.30
2022-11-07T21:41:49.813Z,9.30
2022-11-07T21:44:31.427Z,9.30
2022-11-07T21:47:01.608Z,9.30
2022-11-07T21:49:36.159Z,9.20
2022-11-07T21:52:20.812Z,9.20
2022-11-07T21:55:01.242Z,9.20
2022-11-07T21:57:52.160Z,9.20
2022-11-07T22:00:51.584Z,9.10
2022-11-07T22:04:04.690Z,9.10
2022-11-07T22:06:37.130Z,9.10
2022-11-07T22:09:08.463Z,9.10
2022-11-07T22:11:35.600Z,9.10
2022-11-07T22:14:03.084Z,9.10
2022-11-07T22:16:30.077Z,9.00
2022-11-07T22:18:59.346Z,9.00
2022-11-07T22:21:26.221Z,9.00
2022-11-07T22:23:53.094Z,9.00
2022-11-07T22:26:22.771Z,9.00
2022-11-07T22:28:50.079Z,9.00
2022-11-07T22:31:30.115Z,8.90
2022-11-07T22:33:59.141Z,8.90
2022-11-07T22:36:26.486Z,8.90
2022-11-07T22:38:53.409Z,8.90
2022-11-07T22:41:22.946Z,8.80
2022-11-07T22:43:50.767Z,8.80
2022-11-07T22:46:23.014Z,8.80
2022-11-07T22:48:51.133Z,8.80
2022-11-07T22:51:21.291Z,8.80
2022-11-07T22:53:48.574Z,8.80
2022-11-07T22:56:19.724Z,8.80
2022-11-07T22:58:47.622Z,8.80
2022-11-07T23:01:23.107Z,8.80
2022-11-07T23:03:51.065Z,8.70
2022-11-07T23:06:19.385Z,8.80
2022-11-07T23:08:47.328Z,8.70
2022-11-07T23:14:10.424Z,8.60
2022-11-07T23:16:39.751Z,8.60
2022-11-07T23:19:10.884Z,8.60
2022-11-07T23:21:38.120Z,8.60
2022-11-07T23:24:05.876Z,8.60
2022-11-07T23:26:34.080Z,8.60
2022-11-07T23:29:10.505Z,8.60
2022-11-07T23:31:43.216Z,8.50
2022-11-07T23:34:10.644Z,8.50
2022-11-07T23:36:37.892Z,8.50
2022-11-07T23:39:06.204Z,8.50
2022-11-07T23:41:33.261Z,8.50
2022-11-07T23:44:00.108Z,8.50
2022-11-07T23:46:45.459Z,8.50
2022-11-07T23:49:30.785Z,8.50
2022-11-07T23:51:57.951Z,8.40
2022-11-07T23:54:43.993Z,8.40
2022-11-07T23:57:11.073Z,8.40
2022-11-07T23:59:56.537Z,8.30
